Bethlehem, Georgia
Current Conditions -  °F | °C
As of 8:45 AM on Monday 22 Dec 2014 (Local Time) from KLZU Reporting Station
Haze Haze  
Wind Chill: 37°   Ceiling: 300
Heat Index: 43°   Visibility: 1mi
Dew Point: 37°   Wind: 9mph
Humidity: 81%   Direction: 80°E
Pressure: 30.04"   Gusts: NA
Location:  33.93°N, 83.71°W
Report Text: KLZU 221345Z 08008KT 1SM BR OVC003 06/03 A3004 RMK ATIS U RWY 25 JW
Loading
Personal Weather Stations






























Interactive Weather Map New forecast layout! Learn more

10-Day Weather Forecast

Advertisements
Track Severe Weather on mobile